^^
Datos históricos de la estación: Murcia-Puente Tocinos
Diario Informe para Mayo 12, 2019 Unidades:  Ingés    Métrico   Ambas
Diario Semanal Mensual Anual
  Máxima: Mínima: Promedio:
Temperatura: 58.6 °F 34.3 °F 44.8 °F
Punto de rocio: 31.6 °F 21.4 °F 25.9 °F
Humedad: 71% 27% 49%
Velocidad viento: 5.9mph 0mph 3.1mph
Racha viento: 9.2mph - -
Viento- - SSO
Presión: 30.4 in 30.3 in -
Precipitación: 0 in    
 
 
Tabla de datos para Mayo 12, 2019
Hora Temperatura Punto de rocio Presión Viento Velocidad viento Racha viento Humedad Intensidad lluvia(por hora) Nubes
00:04 41.7 °F 26.6 °F 30.3 in SO 4 mph 7 mph 54.9% 0 in
00:09 42.1 °F 26.6 °F 30.3 in SSO 4.7 mph 7 mph 54.1% 0 in
00:14 42.1 °F 26.6 °F 30.3 in SSO 5.2 mph 6.2 mph 54% 0 in
00:19 42.3 °F 26.2 °F 30.3 in SO 4.5 mph 6 mph 52.8% 0 in
00:24 42.4 °F 25.7 °F 30.3 in SSO 4 mph 6.9 mph 51.4% 0 in
00:29 42.3 °F 26.4 °F 30.3 in SSO 4.2 mph 7 mph 53% 0 in
00:34 41.7 °F 26.4 °F 30.3 in SSO 4.3 mph 7 mph 54% 0 in
00:39 41.4 °F 26.4 °F 30.3 in Sur 3.9 mph 6 mph 54.8% 0 in
00:44 41 °F 26.4 °F 30.3 in SE 3.6 mph 5.2 mph 55.8% 0 in
00:49 40.5 °F 26.4 °F 30.3 in Sur 3.6 mph 5.9 mph 57% 0 in
00:54 39.7 °F 26.2 °F 30.3 in Sur 3.6 mph 6 mph 57.9% 0 in
00:59 39.4 °F 26.2 °F 30.3 in Sur 4 mph 6.9 mph 59% 0 in
01:04 39.4 °F 26.2 °F 30.3 in SSO 4.3 mph 7 mph 59% 0 in
01:09 39.6 °F 25.9 °F 30.3 in SSO 4.5 mph 6.9 mph 57.8% 0 in
01:14 39.9 °F 25.3 °F 30.3 in SSO 4.7 mph 7 mph 55.9% 0 in
01:19 40.3 °F 25 °F 30.3 in SO 4.7 mph 6 mph 54.1% 0 in
01:24 40.6 °F 25 °F 30.3 in SO 4.7 mph 6 mph 53.6% 0 in
01:29 40.8 °F 25 °F 30.3 in SO 4.3 mph 5 mph 53% 0 in
01:34 41 °F 25 °F 30.3 in SO 4 mph 5 mph 52.8% 0 in
01:39 40.6 °F 24.6 °F 30.3 in OSO 3.1 mph 5.2 mph 52.2% 0 in
01:44 40.5 °F 24.1 °F 30.3 in Oeste 2.4 mph 6.9 mph 52% 0 in
01:49 39.9 °F 23.9 °F 30.3 in Oeste 3.3 mph 7 mph 52.3% 0 in
01:54 39.7 °F 23.9 °F 30.3 in Oeste 4 mph 6 mph 53% 0 in
01:59 39.6 °F 23.9 °F 30.3 in Oeste 3 mph 5.4 mph 53.3% 0 in
02:04 39.4 °F 24.1 °F 30.3 in Oeste 2.4 mph 6 mph 54% 0 in
02:09 39 °F 24.1 °F 30.3 in OSO 2.4 mph 5 mph 54.4% 0 in
02:14 39 °F 24.4 °F 30.3 in Oeste 2.4 mph 5 mph 55.4% 0 in
02:19 39 °F 24.8 °F 30.3 in Oeste 2.7 mph 5 mph 56.4% 0 in
02:24 38.8 °F 25 °F 30.3 in Oeste 2.9 mph 5 mph 57% 0 in
02:29 38.8 °F 25 °F 30.3 in Oeste 2.1 mph 3 mph 57.4% 0 in
02:34 38.7 °F 25.3 °F 30.3 in Oeste 1.4 mph 3 mph 58.4% 0 in
02:39 38.7 °F 25.7 °F 30.3 in Oeste 1.4 mph 4.6 mph 59.3% 0 in
02:44 38.5 °F 26.1 °F 30.3 in OSO 1.4 mph 6.9 mph 60.7% 0 in
02:49 38.5 °F 26.8 °F 30.3 in SSO 2.6 mph 7 mph 62.2% 0 in
02:54 38.5 °F 27 °F 30.3 in SO 3.6 mph 7.4 mph 62.9% 0 in
02:59 38.5 °F 26.4 °F 30.3 in SO 3.9 mph 7 mph 61.8% 0 in
03:04 38.5 °F 26.2 °F 30.3 in SO 4 mph 7 mph 61.3% 0 in
03:09 38.5 °F 26.1 °F 30.3 in SO 4.2 mph 7 mph 60.4% 0 in
03:14 38.5 °F 25.5 °F 30.3 in SO 4.3 mph 6 mph 59.5% 0 in
03:19 38.3 °F 25.2 °F 30.3 in Sur 3.9 mph 6.9 mph 59% 0 in
03:24 38.1 °F 24.8 °F 30.3 in SSO 3.6 mph 7.4 mph 58.2% 0 in
03:29 37.9 °F 24.1 °F 30.3 in SO 4.6 mph 8.1 mph 57.2% 0 in
03:34 37.9 °F 23.7 °F 30.3 in SO 5.4 mph 8 mph 56.5% 0 in
03:39 37.9 °F 23.5 °F 30.3 in OSO 5.3 mph 7 mph 55.7% 0 in
03:44 38.1 °F 23.4 °F 30.3 in OSO 5.2 mph 7 mph 54.9% 0 in
03:49 38.1 °F 23 °F 30.3 in SO 4.3 mph 6 mph 54.4% 0 in
03:54 38.1 °F 23.2 °F 30.3 in SO 3.6 mph 6.4 mph 54.5% 0 in
03:59 38.1 °F 22.8 °F 30.3 in SO 3.9 mph 7.4 mph 53.8% 0 in
04:04 38.3 °F 22.6 °F 30.3 in SO 4 mph 7 mph 53% 0 in
04:09 38.5 °F 22.5 °F 30.3 in SO 4.2 mph 7 mph 52.2% 0 in
04:14 38.5 °F 22.1 °F 30.3 in OSO 4.3 mph 7 mph 51.3% 0 in
04:19 38.5 °F 21.7 °F 30.3 in SO 4.2 mph 7 mph 50.7% 0 in
04:24 38.5 °F 21.4 °F 30.3 in SO 4 mph 5.9 mph 50% 0 in
04:29 38.5 °F 21.4 °F 30.3 in OSO 3.8 mph 6 mph 50% 0 in
04:34 38.5 °F 21.4 °F 30.3 in OSO 3.6 mph 6 mph 49.7% 0 in
04:39 38.5 °F 22.5 °F 30.3 in OSO 3 mph 5 mph 52.1% 0 in
04:44 38.5 °F 24.1 °F 30.3 in OSO 2.4 mph 2.9 mph 55.9% 0 in
04:49 37.9 °F 25.3 °F 30.3 in SSE 2.1 mph 4.6 mph 60.3% 0 in
04:54 37.2 °F 25.9 °F 30.3 in SSE 1.8 mph 5 mph 63.1% 0 in
04:59 36.7 °F 25.5 °F 30.3 in SSE 2.5 mph 5 mph 63.5% 0 in
05:04 36.7 °F 25.9 °F 30.3 in SSE 2.9 mph 5.2 mph 64.9% 0 in
05:09 36.5 °F 25.9 °F 30.3 in SSE 3 mph 5 mph 65% 0 in
05:14 36.3 °F 25.7 °F 30.3 in SSE 3.1 mph 5 mph 65% 0 in
05:19 36.3 °F 25.7 °F 30.3 in SSE 2.5 mph 4 mph 65% 0 in
05:24 36.3 °F 25.3 °F 30.3 in SSE 2 mph 4.6 mph 64.2% 0 in
05:29 36.3 °F 25.5 °F 30.3 in SSE 2.2 mph 5 mph 64.2% 0 in
05:34 36.3 °F 25.9 °F 30.3 in SSE 2.4 mph 5.8 mph 65.8% 0 in
05:39 36 °F 26.1 °F 30.3 in SSE 3 mph 6 mph 67.3% 0 in
05:44 35.4 °F 26.2 °F 30.3 in Sur 3.6 mph 5.4 mph 68.6% 0 in
05:49 35.2 °F 26.2 °F 30.3 in Sur 3.6 mph 6 mph 69.4% 0 in
05:54 35.1 °F 26.2 °F 30.3 in SSE 3.6 mph 6.2 mph 70% 0 in
05:59 34.5 °F 26.1 °F 30.3 in SSE 3.9 mph 6.2 mph 70.8% 0 in
06:04 34.3 °F 25.9 °F 30.3 in Sur 4 mph 6 mph 71% 0 in
06:09 34.3 °F 25.9 °F 30.3 in Sur 4 mph 5.8 mph 71% 0 in
06:14 34.3 °F 25.9 °F 30.3 in Sur 4 mph 6 mph 71% 0 in
06:19 34.3 °F 25.9 °F 30.3 in Sur 3.5 mph 5 mph 71% 0 in
06:24 34.3 °F 25.9 °F 30.3 in Sur 3.1 mph 5 mph 71% 0 in
06:29 34.5 °F 25.7 °F 30.3 in Sur 3 mph 5.2 mph 70.2% 0 in
06:34 34.5 °F 25.5 °F 30.3 in SSE 2.9 mph 5.8 mph 69.2% 0 in
06:39 34.7 °F 25.7 °F 30.3 in SSE 3 mph 6 mph 69% 0 in
06:44 34.7 °F 25.2 °F 30.3 in SSE 3.1 mph 6 mph 67.7% 0 in
06:49 34.9 °F 25 °F 30.3 in SSE 3.4 mph 5.9 mph 67% 0 in
06:54 34.9 °F 24.8 °F 30.3 in SSE 3.6 mph 6 mph 66.2% 0 in
06:59 34.9 °F 24.6 °F 30.3 in SSE 3.6 mph 6 mph 65.8% 0 in
07:04 34.7 °F 24.1 °F 30.3 in Sur 3.6 mph 5 mph 65% 0 in
07:09 34.7 °F 24.1 °F 30.3 in Sur 3.2 mph 5.4 mph 64.6% 0 in
07:14 35.1 °F 23.9 °F 30.3 in SSO 2.9 mph 6 mph 63.3% 0 in
07:19 35.4 °F 24.1 °F 30.4 in SO 3 mph 5 mph 63% 0 in
07:24 35.8 °F 24.3 °F 30.4 in OSO 3.1 mph 5 mph 62.6% 0 in
07:29 35.8 °F 23.4 °F 30.4 in OSO 3 mph 5.2 mph 60.5% 0 in
07:34 35.8 °F 23 °F 30.4 in SO 2.9 mph 5 mph 59.5% 0 in
07:39 36 °F 23 °F 30.4 in SO 3.3 mph 5.8 mph 59% 0 in
07:44 36 °F 23.4 °F 30.4 in SSO 3.6 mph 6 mph 59.8% 0 in
07:49 36 °F 23.7 °F 30.4 in SSO 3.4 mph 5 mph 60.6% 0 in
07:54 35.8 °F 23.7 °F 30.4 in SSO 3.1 mph 5 mph 61% 0 in
07:59 35.6 °F 23.7 °F 30.4 in SSO 3 mph 5 mph 61.6% 0 in
08:04 35.4 °F 23.7 °F 30.4 in Sur 2.9 mph 5 mph 62% 0 in
08:09 35.2 °F 23.5 °F 30.4 in SSE 2.9 mph 5.2 mph 62% 0 in
08:14 35.1 °F 23.2 °F 30.4 in Sur 2.9 mph 5.2 mph 62% 0 in
08:19 34.9 °F 23 °F 30.4 in SSO 3 mph 5 mph 61.7% 0 in
08:24 35.1 °F 22.6 °F 30.4 in OSO 3.1 mph 5.2 mph 59.9% 0 in
08:29 35.6 °F 22.1 °F 30.4 in OSO 3.1 mph 5.8 mph 57.7% 0 in
08:34 35.8 °F 21.9 °F 30.4 in OSO 3.1 mph 6 mph 56.5% 0 in
08:39 36 °F 21.7 °F 30.4 in SO 3 mph 5 mph 55.8% 0 in
08:44 36 °F 23 °F 30.4 in SE 2.9 mph 5.2 mph 58.9% 0 in
08:49 35.2 °F 23.4 °F 30.4 in SE 2.9 mph 5 mph 61.3% 0 in
08:54 35.1 °F 23.2 °F 30.4 in SSE 2.9 mph 5.2 mph 62% 0 in
08:59 34.7 °F 23.4 °F 30.4 in Sur 3 mph 5 mph 62.9% 0 in
09:04 34.9 °F 23.5 °F 30.4 in Sur 3.1 mph 5 mph 63% 0 in
09:09 35.1 °F 23.4 °F 30.4 in SSO 3 mph 5.2 mph 62.2% 0 in
09:14 35.4 °F 23 °F 30.4 in SSO 2.9 mph 5.9 mph 60.1% 0 in
09:19 36.1 °F 23.2 °F 30.4 in Sur 3 mph 6 mph 59.1% 0 in
09:24 36.7 °F 23.5 °F 30.4 in Sur 3.1 mph 5 mph 58.8% 0 in
09:29 37 °F 23.2 °F 30.4 in SSO 3 mph 5.2 mph 57.2% 0 in
09:34 37.6 °F 23.7 °F 30.4 in SE 2.9 mph 5 mph 57.2% 0 in
09:39 37.9 °F 24.3 °F 30.4 in SSE 2.6 mph 5.2 mph 57.5% 0 in
09:44 38.1 °F 24.3 °F 30.4 in SE 2.4 mph 5 mph 57% 0 in
09:49 38.3 °F 24.1 °F 30.4 in SSE 2.8 mph 5 mph 56.1% 0 in
09:54 38.7 °F 24.3 °F 30.4 in Sur 3.1 mph 5 mph 56% 0 in
09:59 38.8 °F 23.9 °F 30.4 in SO 3 mph 5 mph 54.7% 0 in
10:04 39.2 °F 23.2 °F 30.4 in OSO 2.9 mph 5.9 mph 52.4% 0 in
10:09 39.6 °F 23 °F 30.4 in OSO 3 mph 6 mph 50.9% 0 in
10:14 40.1 °F 22.6 °F 30.4 in OSO 3.1 mph 6.9 mph 49.3% 0 in
10:19 40.5 °F 22.3 °F 30.4 in OSO 3.4 mph 7 mph 48% 0 in
10:24 41 °F 22.5 °F 30.4 in SO 3.6 mph 5.8 mph 47.4% 0 in
10:29 41.4 °F 22.5 °F 30.4 in SO 3.2 mph 6 mph 46.5% 0 in
10:34 41.7 °F 22.5 °F 30.4 in OSO 2.9 mph 5.8 mph 46% 0 in
10:39 42.3 °F 22.8 °F 30.4 in OSO 2.9 mph 6 mph 45.9% 0 in
10:44 42.6 °F 22.3 °F 30.4 in SO 2.9 mph 9.2 mph 43.9% 0 in
10:49 43 °F 22.3 °F 30.4 in SO 3.5 mph 9 mph 43.5% 0 in
10:54 43.2 °F 22.1 °F 30.4 in SO 4 mph 8.1 mph 43.1% 0 in
10:59 43.3 °F 22.3 °F 30.4 in SSO 4.2 mph 8 mph 42.7% 0 in
11:04 43.9 °F 22.5 °F 30.4 in SSO 4.3 mph 7 mph 42.6% 0 in
11:09 44.1 °F 22.3 °F 30.4 in SSO 4.3 mph 9.2 mph 41.7% 0 in
11:14 43.9 °F 22.3 °F 30.4 in SSO 4.3 mph 9 mph 42% 0 in
11:19 44.1 °F 22.3 °F 30.4 in SO 4.8 mph 8 mph 42% 0 in
11:24 44.2 °F 22.6 °F 30.4 in SSO 5.4 mph 8.5 mph 42% 0 in
11:29 44.6 °F 23 °F 30.4 in SSO 5.3 mph 9.2 mph 42% 0 in
11:34 45 °F 23.2 °F 30.4 in SSO 5.2 mph 9.2 mph 42% 0 in
11:39 45.1 °F 23.4 °F 30.4 in SO 4.9 mph 8 mph 41.8% 0 in
11:44 45.5 °F 23.5 °F 30.4 in SSO 4.7 mph 7 mph 41.4% 0 in
11:49 45.9 °F 23.5 °F 30.4 in OSO 4.3 mph 7 mph 41% 0 in
11:54 46.2 °F 23.7 °F 30.4 in SSO 4 mph 6.9 mph 40.7% 0 in
11:59 46.6 °F 23.7 °F 30.4 in OSO 4 mph 8.5 mph 40.2% 0 in
12:04 46.8 °F 23.7 °F 30.4 in SO 4 mph 9 mph 40% 0 in
12:09 46.9 °F 23.9 °F 30.4 in SO 4.4 mph 9 mph 40% 0 in
12:14 47.3 °F 23.7 °F 30.4 in SO 4.7 mph 7.6 mph 39.1% 0 in
12:19 47.7 °F 23.5 °F 30.4 in OSO 4.7 mph 8.1 mph 38.4% 0 in
12:24 47.8 °F 23 °F 30.4 in OSO 4.7 mph 8.1 mph 37.2% 0 in
12:29 48.4 °F 22.8 °F 30.4 in SO 4.5 mph 8.1 mph 36.5% 0 in
12:34 48.6 °F 22.8 °F 30.4 in SO 4.3 mph 8 mph 36% 0 in
12:39 48.9 °F 22.6 °F 30.4 in SO 4.2 mph 7 mph 35.3% 0 in
12:44 49.3 °F 22.8 °F 30.4 in SO 4 mph 7 mph 35.1% 0 in
12:49 49.6 °F 23 °F 30.4 in SO 4 mph 8.1 mph 35% 0 in
12:54 49.6 °F 22.5 °F 30.4 in SSO 4 mph 8.1 mph 34% 0 in
12:59 50 °F 22.6 °F 30.4 in SSO 4.5 mph 7 mph 34% 0 in
13:04 50.4 °F 23 °F 30.4 in SO 4.7 mph 8.5 mph 34% 0 in
13:09 50.4 °F 23 °F 30.4 in SO 4.5 mph 9 mph 34% 0 in
13:14 50.7 °F 22.8 °F 30.4 in SSO 4.3 mph 7 mph 33.3% 0 in
13:19 51.1 °F 22.8 °F 30.4 in OSO 3.9 mph 6.9 mph 33% 0 in
13:24 51.1 °F 23 °F 30.4 in SO 3.6 mph 7 mph 33% 0 in
13:29 51.4 °F 23.2 °F 30.4 in SSE 3.6 mph 8.1 mph 33% 0 in
13:34 51.6 °F 23.4 °F 30.4 in SSE 3.6 mph 8 mph 33% 0 in
13:39 52 °F 23.7 °F 30.4 in SSE 3.8 mph 7 mph 33% 0 in
13:44 52.3 °F 23.7 °F 30.4 in Sur 4 mph 6.2 mph 32.5% 0 in
13:49 52.5 °F 23.9 °F 30.4 in SSO 3.5 mph 6.9 mph 32.5% 0 in
13:54 52.9 °F 24.3 °F 30.3 in OSO 3.1 mph 7 mph 32.7% 0 in
13:59 52.9 °F 24.4 °F 30.3 in SSO 3.1 mph 6.9 mph 32.9% 0 in
14:04 53.1 °F 24.8 °F 30.3 in SO 3.1 mph 7 mph 33% 0 in
14:09 53.2 °F 25.2 °F 30.3 in OSO 3.1 mph 6.2 mph 33.6% 0 in
14:14 53.1 °F 25.3 °F 30.3 in SSE 3.1 mph 6 mph 34% 0 in
14:19 53.2 °F 25.7 °F 30.3 in Sur 2.7 mph 5 mph 34% 0 in
14:24 53.8 °F 26.1 °F 30.3 in Sur 2.4 mph 4.3 mph 34% 0 in
14:29 54.1 °F 26.8 °F 30.3 in SSO 2.2 mph 4.7 mph 34.5% 0 in
14:34 54.3 °F 27.1 °F 30.3 in SSO 2 mph 5 mph 35% 0 in
14:39 54.7 °F 27.9 °F 30.3 in Sur 1.9 mph 5 mph 35.4% 0 in
14:44 54.9 °F 29.1 °F 30.3 in Sur 1.8 mph 5.8 mph 36.9% 0 in
14:49 54.9 °F 30 °F 30.3 in SSO 2.4 mph 6 mph 38.5% 0 in
14:54 55 °F 30.4 °F 30.3 in SSO 2.9 mph 6 mph 39.1% 0 in
14:59 55 °F 28.4 °F 30.3 in OSO 2.4 mph 5 mph 35.8% 0 in
15:04 55.4 °F 28.6 °F 30.3 in SO 2 mph 5.8 mph 35.6% 0 in
15:09 55.6 °F 28 °F 30.3 in SSO 2 mph 6 mph 34.6% 0 in
15:14 55.8 °F 27.9 °F 30.3 in Sur 2 mph 5 mph 34.1% 0 in
15:19 55.9 °F 26.8 °F 30.3 in ONO 2 mph 5 mph 32.4% 0 in
15:24 55.9 °F 26.2 °F 30.3 in Oeste 2 mph 5.8 mph 31.7% 0 in
15:29 55.9 °F 25.3 °F 30.3 in OSO 2.5 mph 6 mph 30.6% 0 in
15:34 55.9 °F 24.8 °F 30.3 in Oeste 2.9 mph 4.6 mph 29.9% 0 in
15:39 55.9 °F 24.4 °F 30.3 in ONO 2.4 mph 5 mph 29.3% 0 in
15:44 56.3 °F 25.5 °F 30.3 in Oeste 2 mph 5 mph 30.4% 0 in
15:49 56.7 °F 25.3 °F 30.3 in ONO 1.9 mph 3.6 mph 29.9% 0 in
15:54 56.8 °F 25.2 °F 30.3 in ONO 1.8 mph 4 mph 29.3% 0 in
15:59 57.2 °F 25.2 °F 30.3 in Oeste 1.8 mph 3.6 mph 29% 0 in
16:04 57.6 °F 25.3 °F 30.3 in Oeste 1.8 mph 4 mph 29% 0 in
16:09 57.6 °F 25.7 °F 30.3 in Oeste 1.8 mph 4 mph 29.1% 0 in
16:14 57.7 °F 25.2 °F 30.3 in Oeste 1.8 mph 4.6 mph 28.4% 0 in
16:19 57.7 °F 25 °F 30.3 in Oeste 1.8 mph 5 mph 28.3% 0 in
16:24 57.7 °F 25.3 °F 30.3 in Oeste 1.8 mph 4 mph 28.5% 0 in
16:29 57.9 °F 25 °F 30.3 in Oeste 1.8 mph 3.5 mph 28% 0 in
16:34 57.9 °F 25 °F 30.3 in ONO 1.8 mph 3 mph 28% 0 in
16:39 58.3 °F 25.2 °F 30.3 in ONO 1.6 mph 3.5 mph 27.8% 0 in
16:44 58.5 °F 24.6 °F 30.3 in ONO 1.4 mph 3.5 mph 27% 0 in
16:49 58.6 °F 25 °F 30.3 in ONO 1.4 mph 2.9 mph 27.3% 0 in
16:54 58.6 °F 24.6 °F 30.3 in ONO 1.4 mph 3.6 mph 27% 0 in
16:59 58.3 °F 24.4 °F 30.3 in ONO 1.4 mph 4 mph 27% 0 in
17:04 57.9 °F 24.6 °F 30.3 in ONO 1.4 mph 3.5 mph 27.5% 0 in
17:09 57.7 °F 24.3 °F 30.3 in ONO 1.6 mph 3 mph 27.5% 0 in
17:14 57.6 °F 24.6 °F 30.3 in ONO 1.8 mph 2.9 mph 28% 0 in
17:19 57.6 °F 24.6 °F 30.3 in ONO 1.6 mph 3 mph 28% 0 in
17:24 57.6 °F 24.8 °F 30.3 in ONO 1.4 mph 3 mph 28% 0 in
17:29 57.7 °F 24.8 °F 30.3 in ONO 0.6 mph 1.4 mph 28% 0 in
17:34 57.9 °F 25 °F 30.3 in Calm   3.1 mph 28% 0 in
17:39 57.7 °F 24.8 °F 30.3 in ONO 0.7 mph 3.6 mph 28.1% 0 in
17:44 57.2 °F 24.8 °F 30.3 in ONO 1.4 mph 4.6 mph 28.6% 0 in
17:49 56.7 °F 24.8 °F 30.3 in ONO 1.9 mph 5 mph 29% 0 in
17:54 56.3 °F 25.3 °F 30.3 in ONO 2.4 mph 4 mph 30% 0 in
17:59 55.9 °F 25.3 °F 30.3 in ONO 2.2 mph 3.5 mph 30.3% 0 in
18:04 55.8 °F 25.5 °F 30.3 in ONO 2 mph 3 mph 31% 0 in
18:09 55.6 °F 25.5 °F 30.3 in ONO 1.9 mph 4 mph 31.1% 0 in
18:14 55.2 °F 26.1 °F 30.3 in ESE 1.8 mph 5 mph 32.3% 0 in
18:19 54.9 °F 26.8 °F 30.3 in ESE 2.1 mph 5 mph 33.6% 0 in
18:24 54.5 °F 27 °F 30.3 in ESE 2.4 mph 5 mph 34.5% 0 in
18:29 54.1 °F 27.3 °F 30.3 in ESE 2.4 mph 4 mph 35.4% 0 in
18:34 54 °F 27.5 °F 30.3 in ESE 2.4 mph 4 mph 36% 0 in
18:39 53.6 °F 27.7 °F 30.3 in ESE 2.2 mph 4 mph 36.5% 0 in
18:44 53.4 °F 28.2 °F 30.3 in ESE 2 mph 3.6 mph 37.7% 0 in
18:49 53.1 °F 28.6 °F 30.3 in ESE 1.9 mph 4 mph 38.5% 0 in
18:54 52.9 °F 28.9 °F 30.3 in ESE 1.8 mph 3.5 mph 39.7% 0 in
18:59 52.3 °F 29.1 °F 30.3 in ESE 1.8 mph 3 mph 40.5% 0 in
19:04 52.2 °F 29.3 °F 30.3 in ESE 1.8 mph 3 mph 41.4% 0 in
19:09 51.8 °F 29.7 °F 30.3 in ESE 1.6 mph 4 mph 42.5% 0 in
19:14 51.4 °F 29.7 °F 30.3 in ESE 1.4 mph 5 mph 43% 0 in
19:19 51.1 °F 29.8 °F 30.3 in ESE 1.9 mph 5.2 mph 43.9% 0 in
19:24 50.9 °F 29.8 °F 30.3 in ESE 2.4 mph 5.4 mph 44.4% 0 in
19:29 50.7 °F 30 °F 30.3 in ESE 2.8 mph 6 mph 45% 0 in
19:34 50.5 °F 30.2 °F 30.3 in ESE 3.1 mph 5 mph 45.3% 0 in
19:39 50.4 °F 30.4 °F 30.3 in SE 2.2 mph 2.4 mph 46% 0 in
19:44 50.4 °F 30.2 °F 30.3 in SSE 1.4 mph 4.7 mph 46% 0 in
19:49 49.8 °F 29.1 °F 30.3 in OSO 1.9 mph 5.8 mph 44.9% 0 in
19:54 49.5 °F 28.8 °F 30.3 in OSO 2.4 mph 6 mph 44.7% 0 in
19:59 49.5 °F 28.9 °F 30.3 in OSO 2.7 mph 5 mph 44.8% 0 in
20:04 49.5 °F 28.6 °F 30.3 in OSO 2.9 mph 4.6 mph 44.2% 0 in
20:09 49.5 °F 28.8 °F 30.3 in OSO 2.6 mph 5 mph 44.5% 0 in
20:14 49.5 °F 29.1 °F 30.3 in OSO 2.4 mph 5 mph 45.1% 0 in
20:19 49.3 °F 29.3 °F 30.3 in OSO 2.4 mph 5 mph 46% 0 in
20:24 48.9 °F 29.3 °F 30.3 in OSO 2.4 mph 5 mph 46.5% 0 in
20:29 48.7 °F 29.3 °F 30.3 in OSO 2.7 mph 5 mph 47% 0 in
20:34 48.4 °F 29.7 °F 30.3 in OSO 2.9 mph 5 mph 48% 0 in
20:39 48.4 °F 29.8 °F 30.3 in OSO 2.4 mph 5 mph 48.6% 0 in
20:44 48 °F 30.2 °F 30.3 in OSO 2 mph 4.6 mph 50% 0 in
20:49 48 °F 30.6 °F 30.3 in OSO 2.2 mph 5 mph 50.8% 0 in
20:54 47.8 °F 30.7 °F 30.3 in SSO 2.4 mph 5.2 mph 51.4% 0 in
20:59 47.7 °F 30.9 °F 30.3 in Sur 2.8 mph 5 mph 52% 0 in
21:04 47.7 °F 30.9 °F 30.3 in Sur 3.1 mph 5 mph 52.4% 0 in
21:09 47.3 °F 31.1 °F 30.3 in Sur 3.1 mph 5 mph 53% 0 in
21:14 47.1 °F 30.9 °F 30.3 in Sur 3.1 mph 5 mph 53% 0 in
21:19 47.1 °F 31.1 °F 30.3 in Sur 2.7 mph 5 mph 53.5% 0 in
21:24 47.1 °F 31.6 °F 30.3 in Sur 2.4 mph 3 mph 54.6% 0 in
21:29 46.9 °F 31.3 °F 30.3 in Sur 1.9 mph 4 mph 54.5% 0 in
21:34 46.9 °F 31.6 °F 30.3 in Sur 1.4 mph 5.2 mph 55% 0 in
21:39 46.8 °F 31.5 °F 30.3 in Sur 2.2 mph 5 mph 55% 0 in
21:44 46.6 °F 31.5 °F 30.3 in Sur 2.9 mph 5 mph 55.2% 0 in
21:49 46.6 °F 31.6 °F 30.3 in Sur 2.4 mph 4 mph 56% 0 in
21:54 46.4 °F 31.5 °F 30.3 in Sur 2 mph 3.5 mph 56% 0 in
21:59 46.2 °F 31.5 °F 30.3 in Sur 1.6 mph 3 mph 56.3% 0 in
22:04 46 °F 31.6 °F 30.3 in Sur 1.4 mph 4.6 mph 57% 0 in
22:09 45.9 °F 31.5 °F 30.3 in SSE 1.7 mph 5.4 mph 57% 0 in
22:14 45.3 °F 31.3 °F 30.3 in SSE 2 mph 6.2 mph 57.8% 0 in
22:19 44.6 °F 31.1 °F 30.3 in Sur 3.2 mph 6.2 mph 58.7% 0 in
22:24 44.2 °F 30.9 °F 30.3 in SO 4.3 mph 8.1 mph 59% 0 in
22:29 44.2 °F 30.9 °F 30.3 in OSO 4.5 mph 8.1 mph 59% 0 in
22:34 44.4 °F 30.9 °F 30.3 in OSO 4.7 mph 8 mph 58.7% 0 in
22:39 44.4 °F 30.6 °F 30.3 in OSO 4.3 mph 6 mph 58% 0 in
22:44 44.4 °F 30.6 °F 30.3 in OSO 4 mph 5 mph 58% 0 in
22:49 44.4 °F 30.6 °F 30.3 in OSO 3.2 mph 5.2 mph 58% 0 in
22:54 44.2 °F 30.6 °F 30.3 in Sur 2.4 mph 5.8 mph 58.1% 0 in
22:59 44.1 °F 30.7 °F 30.3 in Sur 2.8 mph 6 mph 59% 0 in
23:04 43.9 °F 30.7 °F 30.3 in Sur 3.1 mph 6 mph 59.9% 0 in
23:09 43.5 °F 30.6 °F 30.3 in Sur 3.4 mph 6 mph 60.1% 0 in
23:14 43.5 °F 30.9 °F 30.3 in Sur 3.6 mph 5 mph 61% 0 in
23:19 43.5 °F 31.5 °F 30.3 in Sur 3.4 mph 5 mph 61.9% 0 in
23:24 43.5 °F 31.5 °F 30.3 in Sur 3.1 mph 5.9 mph 62% 0 in
23:29 43.5 °F 31.6 °F 30.3 in Sur 3.6 mph 7.4 mph 62.7% 0 in
23:34 43.3 °F 31.5 °F 30.3 in Sur 4 mph 8.7 mph 63% 0 in
23:39 43.2 °F 31.3 °F 30.3 in Sur 5 mph 9.2 mph 63.1% 0 in
23:44 43 °F 31.6 °F 30.3 in SSO 5.9 mph 8.1 mph 64% 0 in
23:49 42.8 °F 31.5 °F 30.3 in Sur 5.5 mph 8 mph 64% 0 in
23:54 42.8 °F 31.5 °F 30.3 in Sur 5.2 mph 7 mph 64% 0 in
23:59 42.8 °F 31.5 °F 30.3 in Sur 4.7 mph 6.2 mph 64% 0 in
Murcia-Puente Tocinos, Espa?a
Compliments of Weather Underground - 3.25 mb

La estación de MeteoMurcia.com, publica sus datos en los siguientes proyectos:

Weather Underground PWS IMURCIAP2 Meteoclimatic www.awekas.at

W3Counter
Web Analytics